34.232.62.209 @ 2020/06/07 01:50:48

il Ciclismo
in cifre

Il Ciclismo in Cifre - Giro d'Italia 2018

Tutti i numeri del Ciclismo: classifiche, risultati e statistiche, della 101ª edizione del Giro d'Italia, la maglia rosa e le altre maglie simbolo di primato le vittorie, il palmares e tutte le informazioni sui corridori professionisti e le squadre ciclistiche partecipanti

I dati presenti in questo sito sono stati verificati con le fonti ufficiali quali UCI, CIO, RCS e ASO al momento della pubblicazione e generalmente non vengono più sottoposti a successivi controlli. Leggere le FAQ per ulteriori informazioni. Questo sito non è in alcun modo legato alle fonti ufficiali: marchi o logotipi di terze parti potranno essere rimossi su semplice richiesta dei legittimi titolari che non ne approvino l'eventuale presenza in queste pagine.

Classifiche, graduatorie ed ordini d'arrivo presentati in questo sito per convenzione adottano normalmente un numero d'ordine progressivo anche in caso di parità di posizioni o tempi di gara.

Per contattare direttamente il Cybernauta: Mailto@cybernauta

Risposte alle domande più frequenti: FAQ@cybernauta

Il Cybernauta è presente anche su Twitter: Twitter@cybernauta

Giro d'Italia 2018 - Classifica

Classifica generale della maglia rosa

1. FROOME ChrisGBRSKY89:02:39"0:00"
2. DUMOULIN TomNEDSUN89:03:25"0:46"
3. LOPEZ MORENO Miguel AngelCOLAST89:07:36"04:57"
4. CARAPAZ RichardECUMOV89:08:23"05:44"
5. POZZOVIVO DomenicoITATBM89:10:42"08:03"
6. BILBAO LOPEZ DE ARMENTIA P.ESPAST89:14:29"11:50"
7. KONRAD PatrickAUTBOH89:15:40"13:01"
8. BENNETT GeorgeNZLTLJ89:15:56"13:17"
9. OOMEN SamNEDSUN89:16:57"14:18"
10. FORMOLO DavideITABOH89:17:55"15:16"
11. GENIEZ AlexandreFRAALM89:20:09"17:30"
12. POELS WoutNEDSKY89:20:19"17:40"
13. HENAO MONTOYA Sergio LuisCOLSKY89:32:20"29:41"
14. GONCALVES Jose'PORTKA89:37:08"34:29"
15. BETANCUR CarlosCOLMOV89:44:27"41:48"
16. DENNIS RohanAUSBMC89:58:46"56:07"
17. NIEVE ITURRALDE MikelESPMTS90:0:55"58:16"
18. BRAMBILLA GianlucaITATFS90:03:09"1:0:30"
19. WOODS MichaelCANEFD90:04:03"1:01:24"
20. DUPONT HubertFRAALM90:06:33"1:03:54"
21. YATES Simon PhilipGBRMTS90:17:50"1:15:11"
22. REICHENBACH SebastienSUIGFC90:17:57"1:15:18"
23. GESINK RobertNEDTLJ90:22:28"1:19:49"
24. CONTI ValerioITAUAD90:25:43"1:23:04"
25. SANCHEZ Luis LeonESPAST90:25:50"1:23:11"
26. MASNADA FaustoITAANS90:28:52"1:26:13"
27. GROSSSCHARTNER FelixAUTBOH90:31:26"1:28:47"
28. ULISSI DiegoITAUAD90:34:07"1:31:28"
29. PREIDLER GeorgAUTGFC90:36:03"1:33:24"
30. MOHORIC MatejSLOTBM90:42:57"1:40:18"
31. SCHACHMANN MaximilianGERQST90:44:15"1:41:36"
32. POLANC JanSLOUAD91:0:48"1:58:09"
33. CATTANEO MattiaITAANS91:02:56"2:0:17"
34. BATTAGLIN EnricoITATLJ91:04:54"2:02:15"
35. TEN DAM LaurensNEDSUN91:05:32"2:02:53"
36. HAIG JackAUSMTS91:05:45"2:03:06"
37. BIDARD FrancoisFRAALM91:09:04"2:06:25"
38. VISCONTI GiovanniITATBM91:10:11"2:07:32"
39. DE LA PARTE VictorESPMOV91:10:58"2:08:19"
40. CICCONE GiulioITABRD91:11:34"2:08:55"
41. LAMMERTINK MauritsNEDTKA91:13:06"2:10:27"
42. MONTAGUTI MatteoITAALM91:19:49"2:17:10"
43. FRANKINY KilianSUIBMC91:22:49"2:20:10"
44. KING BenjaminUSADDD91:27:05"2:24:26"
45. HERMANS BenBELICA91:27:40"2:25:01"
46. HIRT JanCZEAST91:29:26"2:26:47"
47. PLAZA RubenESPICA91:30:36"2:27:57"
48. JAUREGUI QuentinFRAALM91:31:55"2:29:16"
49. CAPECCHI ErosITAQST91:45:03"2:42:24"
50. BOUWMAN KoenNEDTLJ91:45:17"2:42:38"
51. ELISSONDE KennyFRASKY91:45:18"2:42:39"
52. BROWN NathanUSAEFD91:45:18"2:42:39"
53. GAVAZZI FrancescoITAANS91:48:20"2:45:41"
54. PANTANO JarlinsonCOLTFS91:50:50"2:48:11"
55. KREUZIGER RomanCZEMTS91:54:29"2:51:50"
56. DE LA CRUZ MELGAREJO DavidESPSKY91:55:21"2:52:42"
57. ARMEE SanderBELLTS91:56:23"2:53:44"
58. PFINGSTEN ChristophGERBOH91:58:40"2:56:01"
59. TORRES AGUDELO Rodolfo AndreCOLANS92:01:35"2:58:56"
60. HANSEN Adam JamesAUSLTS92:03:36"3:0:57"
61. ATAPUMA Jhon DarwinCOLUAD92:07:25"3:04:46"
62. DENZ NicoGERALM92:08:42"3:06:03"
63. DOMBROWSKI Joseph LloydUSAEFD92:11:56"3:09:17"
64. PUCCIO SalvatoreITASKY92:13:19"3:10:40"
65. DE MARCHI AlessandroITABMC92:13:45"3:11:06"
66. MORI ManueleITAUAD92:15:11"3:12:32"
67. ZEITS AndreyKAZAST92:16:30"3:13:51"
68. BALLERINI DavideITAANS92:16:41"3:14:02"
69. MARCATO MarcoITAUAD92:22:25"3:19:46"
70. VILLELLA DavideITAAST92:22:32"3:19:53"
71. HAGA ChadUSASUN92:23:25"3:20:46"
72. CHAVES Jhoan EstebanCOLMTS92:24:10"3:21:31"
73. NEILANDS KristsLATICA92:30:52"3:28:13"
74. JUUL JENSEN ChristopherDENMTS92:31:10"3:28:31"
75. BOARO ManueleITATBM92:32:44"3:30:05"
76. ROUX AnthonyFRAGFC92:42:27"3:39:48"
77. CARTHY Hugh JohnGBREFD92:46:04"3:43:25"
78. JANSE VAN RENSBURG Jacques WRSADDD92:46:14"3:43:35"
79. MORABITO SteveSUIGFC92:47:49"3:45:10"
80. STYBAR ZdenekCZEQST92:53:19"3:50:40"
81. SCHMIDT Mads WurtzDENTKA92:55:46"3:53:07"
82. QUINTANA DayerCOLMOV92:57:11"3:54:32"
83. BERHANE NatnaelERIDDD92:57:16"3:54:37"
84. GIBBONS RyanRSADDD93:01:10"3:58:31"
85. FERNANDEZ RubenESPMOV93:02:15"3:59:36"
86. TURRIN AlexITAWIL93:05:35"4:02:56"
87. LUTSENKO AlexeyKAZAST93:06:50"4:04:11"
88. MODOLO SachaITAEFD93:08:23"4:05:44"
89. VENTOSO ALBERDI Francisco JoESPBMC93:08:40"4:06:01"
90. VENDRAME AndreaITAANS93:09:17"4:06:38"
91. KNEES ChristianGERSKY93:09:41"4:07:02"
92. PEDRERO AntonioESPMOV93:09:54"4:07:15"
93. EG NiklasDENTFS93:10:59"4:08:20"
94. BARBIN EnricoITABRD93:11:13"4:08:34"
95. VENTER JacoRSADDD93:12:41"4:10:02"
96. SEPULVEDA EduardoARGMOV93:12:56"4:10:17"
97. DIDIER LaurentLUXTFS93:13:44"4:11:05"
98. MOSCA JacopoITAWIL93:14:00"4:11:21"
99. VAN EMDEN JosNEDTLJ93:17:01"4:14:22"
100. NIBALI AntonioITATBM93:17:09"4:14:30"
101. NOVAK DomenSLOTBM93:18:03"4:15:24"
102. LAENGEN Vegard StakeNORUAD93:20:02"4:17:23"
103. HAMILTON ChristopherAUSSUN93:22:13"4:19:34"
104. VENTURINI ClementFRAALM93:23:35"4:20:56"
105. KUZNETSOV ViacheslavRUSTKA93:24:35"4:21:56"
106. BAK YTTING LarsDENLTS93:24:39"4:22:00"
107. MORKOV MichaelDENQST93:25:35"4:22:56"
108. BENEDETTI CesareITABOH93:26:20"4:23:41"
109. ROY JeremyFRAGFC93:27:18"4:24:39"
110. MARTIN TonyGERTKA93:30:38"4:27:59"
111. SBARAGLI KristianITAICA93:31:08"4:28:29"
112. BENNETT SamIRLBOH93:35:02"4:32:23"
113. BONIFAZIO Niccolo'ITATBM93:37:03"4:34:24"
114. LINDEMAN Bert-JanNEDTLJ93:39:02"4:36:23"
115. CAVAGNA RemiFRAQST93:39:04"4:36:25"
116. PLANCKAERT BaptisteBELTKA93:42:23"4:39:44"
117. BOIVIN GuillaumeCANICA93:42:52"4:40:13"
118. DRUCKER Jean-PierreLUXBMC93:42:58"4:40:19"
119. FRAPPORTI MarcoITAANS93:44:14"4:41:35"
120. DOWSETT AlexGBRTKA93:44:32"4:41:53"
121. VAN POPPEL DannyNEDTLJ93:46:20"4:43:41"
122. VAN HOECKE GijsBELTLJ93:47:04"4:44:25"
123. BELLETTI ManuelITAANS93:48:30"4:45:51"
124. ROELANDTS JurgenBELBMC93:48:32"4:45:53"
125. ANDREETTA SimoneITABRD93:49:30"4:46:51"
126. DEMPSTER ZakkariAUSICA93:52:19"4:49:40"
127. BELKOV MaximRUSTKA93:53:48"4:51:09"
128. CURVERS RoyNEDSUN93:57:39"4:55:00"
129. SABATINI FabioITAQST93:57:48"4:55:09"
130. BEWLEY SamNZLMTS93:58:27"4:55:48"
131. DOCKER MitchellAUSEFD93:59:09"4:56:30"
132. VIVIANI EliaITAQST93:59:43"4:57:04"
133. VAN ASBROECK TomBELEFD94:0:35"4:57:56"
134. IRIZAR ARAMBURU MarkelESPTFS94:01:51"4:59:12"
135. SENECHAL FlorianFRAQST94:02:10"4:59:31"
136. DEBUSSCHERE JensBELLTS94:06:38"5:03:59"
137. VAN POPPEL BoyNEDTFS94:08:18"5:05:39"
138. MULLEN RyanIRLTFS94:10:51"5:08:12"
139. SCHILLINGER AndreasGERBOH94:11:12"5:08:33"
140. PEDERSEN MadsDENTFS94:12:13"5:09:34"
141. SAGIV GuyISRICA94:18:21"5:15:42"
142. FRISON FrederikBELLTS94:18:38"5:15:59"
143. BERTAZZO LiamITAWIL94:20:54"5:18:15"
144. HOFSTEDE LennardNEDSUN94:21:32"5:18:53"
145. SIMION PaoloITABRD94:28:10"5:25:31"
146. COLEDAN MarcoITAWIL94:34:46"5:32:07"
147. TUFT SveinCANMTS94:35:31"5:32:52"
148. ZHUPA EugertALBWIL94:36:53"5:34:14"
149. FONZI GiuseppeITAWIL94:51:16"5:48:37"

Ritirati o squalificati in ciascuna tappa

01 - SIUTSOU Kanstantsin
04 - GUARDINI Andrea
05 - NIV Guy
06 - SELIG Rüdiger
07 - ZARDINI Edoardo
09 - MARECZKO Jakub
10 - VALLS FERRI Rafael
13 - TANEL Kangert
14 - WELLENS Tim, SCULLY Tom
15 - TONELLI Alessandro, ANTON HERNANDEZ Igor, ROCHE Nicolas, VLIEGEN Loïc, SENNI Manuel
16 - CAMPENAERTS Victor, MEINTJES Louis, VAN DER SANDE Tosh
19 - ARU Fabio, KIRYIENKA Vasil, O'CONNOR Ben, BONNET William, MAESTRI Mirco, CHEREL Mikael, VERVAEKE Louis
21 - PINOT Thibaut, LADAGNOUS Matthieu

Aggiornamento: 2019/05/17 23:00:57

K16PC71-ciclismo